Terminal Aerodrome Forecast
Issued by NWS Sioux Falls, SD

Home | Current Version | Previous Version | Text Only | Print | Product List | Glossary On
Versions: 1 2 3 4 5 6 7 8 9
631
FTUS43 KFSD 242320
TAFFSD
TAF
KFSD 242320Z 2500/2524 19006KT P6SM SCT090
     FM250300 31008KT P6SM SCT200
     FM250900 36010KT P6SM BKN120
      TEMPO 2511/2512 OVC025
     FM251200 01012KT P6SM OVC015
     FM251700 02013G19KT 5SM -RA OVC015
     FM252000 01015G23KT 3SM RA OVC008=

USA.gov is the U.S. government's official web portal to all federal, state and local government web resources and services.